sensor_id;sensor_type;location;lat;lon;timestamp;pressure;altitude;pressure_sealevel;temperature;humidity
20119;BME280;10220;42.716;23.306;2022-11-24T00:01:09;94206.72;;;11.31;100.00
20119;BME280;10220;42.716;23.306;2022-11-24T00:03:35;94203.84;;;11.16;100.00
20119;BME280;10220;42.716;23.306;2022-11-24T00:06:08;94198.41;;;12.01;100.00
20119;BME280;10220;42.716;23.306;2022-11-24T00:08:35;94119.34;;;10.48;100.00
20119;BME280;10220;42.716;23.306;2022-11-24T00:11:06;94208.78;;;10.78;100.00
20119;BME280;10220;42.716;23.306;2022-11-24T00:13:32;94198.13;;;12.30;100.00
20119;BME280;10220;42.716;23.306;2022-11-24T00:16:07;94216.97;;;11.76;100.00
20119;BME280;10220;42.716;23.306;2022-11-24T00:18:32;94211.97;;;12.35;100.00
20119;BME280;10220;42.716;23.306;2022-11-24T00:20:58;94216.69;;;12.06;100.00
20119;BME280;10220;42.716;23.306;2022-11-24T00:23:42;94216.72;;;11.00;100.00
20119;BME280;10220;42.716;23.306;2022-11-24T00:26:10;94222.97;;;10.64;100.00
20119;BME280;10220;42.716;23.306;2022-11-24T00:28:36;94203.56;;;11.68;100.00
20119;BME280;10220;42.716;23.306;2022-11-24T00:31:03;94220.94;;;10.32;100.00
20119;BME280;10220;42.716;23.306;2022-11-24T00:33:29;94181.91;;;10.11;100.00
20119;BME280;10220;42.716;23.306;2022-11-24T00:35:58;94199.63;;;11.38;100.00
20119;BME280;10220;42.716;23.306;2022-11-24T00:38:25;94228.75;;;11.28;100.00
20119;BME280;10220;42.716;23.306;2022-11-24T00:40:51;94223.50;;;11.51;100.00
20119;BME280;10220;42.716;23.306;2022-11-24T00:43:17;94210.78;;;11.94;100.00
20119;BME280;10220;42.716;23.306;2022-11-24T00:45:43;94211.88;;;11.98;100.00
20119;BME280;10220;42.716;23.306;2022-11-24T00:48:08;94221.66;;;12.24;100.00
20119;BME280;10220;42.716;23.306;2022-11-24T00:50:34;94214.38;;;11.93;100.00
20119;BME280;10220;42.716;23.306;2022-11-24T00:53:00;94239.66;;;10.57;100.00
20119;BME280;10220;42.716;23.306;2022-11-24T00:55:25;94223.78;;;11.66;100.00
20119;BME280;10220;42.716;23.306;2022-11-24T00:57:51;94222.38;;;10.97;100.00
20119;BME280;10220;42.716;23.306;2022-11-24T01:00:17;94214.13;;;11.50;100.00
20119;BME280;10220;42.716;23.306;2022-11-24T01:02:42;94198.78;;;10.02;100.00
20119;BME280;10220;42.716;23.306;2022-11-24T01:05:08;94232.13;;;9.92;100.00
20119;BME280;10220;42.716;23.306;2022-11-24T01:07:33;94232.88;;;10.22;100.00
20119;BME280;10220;42.716;23.306;2022-11-24T01:10:00;94222.63;;;10.72;100.00
20119;BME280;10220;42.716;23.306;2022-11-24T01:12:25;94219.13;;;10.10;100.00
20119;BME280;10220;42.716;23.306;2022-11-24T01:14:51;94236.56;;;9.74;100.00
20119;BME280;10220;42.716;23.306;2022-11-24T01:17:17;94225.56;;;10.19;100.00
20119;BME280;10220;42.716;23.306;2022-11-24T01:19:42;94231.19;;;8.99;100.00
20119;BME280;10220;42.716;23.306;2022-11-24T01:22:07;94235.03;;;9.84;100.00
20119;BME280;10220;42.716;23.306;2022-11-24T01:24:33;94188.28;;;9.86;100.00
20119;BME280;10220;42.716;23.306;2022-11-24T01:27:01;94245.81;;;10.10;100.00
20119;BME280;10220;42.716;23.306;2022-11-24T01:29:27;94246.19;;;11.33;100.00
20119;BME280;10220;42.716;23.306;2022-11-24T01:31:52;94253.59;;;10.33;100.00
20119;BME280;10220;42.716;23.306;2022-11-24T01:34:18;94250.34;;;10.49;100.00
20119;BME280;10220;42.716;23.306;2022-11-24T01:36:43;94254.59;;;11.12;100.00
20119;BME280;10220;42.716;23.306;2022-11-24T01:39:08;94258.31;;;10.93;100.00
20119;BME280;10220;42.716;23.306;2022-11-24T01:41:34;94239.00;;;11.23;100.00
20119;BME280;10220;42.716;23.306;2022-11-24T01:43:59;94224.22;;;11.91;100.00
20119;BME280;10220;42.716;23.306;2022-11-24T01:49:12;94241.38;;;11.25;100.00
20119;BME280;10220;42.716;23.306;2022-11-24T01:51:42;94225.22;;;11.34;100.00
20119;BME280;10220;42.716;23.306;2022-11-24T01:54:17;94227.22;;;11.99;100.00
20119;BME280;10220;42.716;23.306;2022-11-24T01:56:47;94238.53;;;12.10;100.00
20119;BME280;10220;42.716;23.306;2022-11-24T01:59:16;94186.13;;;9.94;100.00
20119;BME280;10220;42.716;23.306;2022-11-24T02:01:44;94245.03;;;10.90;100.00
20119;BME280;10220;42.716;23.306;2022-11-24T02:04:13;94210.16;;;10.24;100.00
20119;BME280;10220;42.716;23.306;2022-11-24T02:06:42;94187.00;;;10.29;100.00
20119;BME280;10220;42.716;23.306;2022-11-24T02:09:20;94236.59;;;10.83;100.00
20119;BME280;10220;42.716;23.306;2022-11-24T02:11:47;94235.84;;;11.21;100.00
20119;BME280;10220;42.716;23.306;2022-11-24T02:14:14;94247.94;;;11.44;100.00
20119;BME280;10220;42.716;23.306;2022-11-24T02:16:44;94241.66;;;11.40;100.00
20119;BME280;10220;42.716;23.306;2022-11-24T02:21:58;94245.69;;;10.97;100.00
20119;BME280;10220;42.716;23.306;2022-11-24T02:26:55;94258.41;;;11.21;100.00
20119;BME280;10220;42.716;23.306;2022-11-24T02:29:20;94257.19;;;10.21;100.00
20119;BME280;10220;42.716;23.306;2022-11-24T02:31:57;94243.59;;;11.33;100.00
20119;BME280;10220;42.716;23.306;2022-11-24T02:34:24;94252.09;;;11.68;100.00
20119;BME280;10220;42.716;23.306;2022-11-24T02:36:49;94250.81;;;9.94;100.00
20119;BME280;10220;42.716;23.306;2022-11-24T02:39:15;94269.84;;;9.23;100.00
20119;BME280;10220;42.716;23.306;2022-11-24T02:41:43;94261.00;;;9.31;100.00
20119;BME280;10220;42.716;23.306;2022-11-24T02:44:12;94198.78;;;10.13;100.00
20119;BME280;10220;42.716;23.306;2022-11-24T02:46:39;94257.19;;;10.32;100.00
20119;BME280;10220;42.716;23.306;2022-11-24T02:49:05;94253.72;;;10.38;100.00
20119;BME280;10220;42.716;23.306;2022-11-24T02:51:30;94251.47;;;10.87;100.00
20119;BME280;10220;42.716;23.306;2022-11-24T02:53:55;94227.72;;;10.45;100.00
20119;BME280;10220;42.716;23.306;2022-11-24T02:56:21;94235.16;;;10.64;100.00
20119;BME280;10220;42.716;23.306;2022-11-24T02:58:46;94235.56;;;10.84;100.00
20119;BME280;10220;42.716;23.306;2022-11-24T03:01:11;94246.66;;;11.69;100.00
20119;BME280;10220;42.716;23.306;2022-11-24T03:03:37;94266.19;;;11.10;100.00
20119;BME280;10220;42.716;23.306;2022-11-24T03:06:25;94242.47;;;10.33;100.00
20119;BME280;10220;42.716;23.306;2022-11-24T03:09:00;94266.47;;;10.74;100.00
20119;BME280;10220;42.716;23.306;2022-11-24T03:11:25;94265.88;;;10.60;100.00
20119;BME280;10220;42.716;23.306;2022-11-24T03:13:51;94273.00;;;11.50;100.00
20119;BME280;10220;42.716;23.306;2022-11-24T03:16:16;94273.00;;;12.22;100.00
20119;BME280;10220;42.716;23.306;2022-11-24T03:18:42;94273.88;;;12.11;100.00
20119;BME280;10220;42.716;23.306;2022-11-24T03:21:07;94265.97;;;12.33;100.00
20119;BME280;10220;42.716;23.306;2022-11-24T03:23:33;94269.81;;;12.47;100.00
20119;BME280;10220;42.716;23.306;2022-11-24T03:26:08;94276.81;;;12.30;100.00
20119;BME280;10220;42.716;23.306;2022-11-24T03:28:34;94281.69;;;12.27;100.00
20119;BME280;10220;42.716;23.306;2022-11-24T03:30:59;94296.91;;;12.07;100.00
20119;BME280;10220;42.716;23.306;2022-11-24T03:33:26;94246.75;;;11.74;100.00
20119;BME280;10220;42.716;23.306;2022-11-24T03:35:51;94287.13;;;12.42;100.00
20119;BME280;10220;42.716;23.306;2022-11-24T03:38:17;94263.09;;;12.19;100.00
20119;BME280;10220;42.716;23.306;2022-11-24T03:40:42;94238.31;;;12.11;100.00
20119;BME280;10220;42.716;23.306;2022-11-24T03:43:07;94294.38;;;12.56;100.00
20119;BME280;10220;42.716;23.306;2022-11-24T03:45:33;94306.59;;;12.89;100.00
20119;BME280;10220;42.716;23.306;2022-11-24T03:47:58;94269.31;;;12.50;100.00
20119;BME280;10220;42.716;23.306;2022-11-24T03:50:23;94301.00;;;11.02;100.00
20119;BME280;10220;42.716;23.306;2022-11-24T03:52:49;94305.06;;;11.10;100.00
20119;BME280;10220;42.716;23.306;2022-11-24T03:55:14;94293.97;;;11.37;100.00
20119;BME280;10220;42.716;23.306;2022-11-24T03:57:40;94300.97;;;9.64;100.00
20119;BME280;10220;42.716;23.306;2022-11-24T04:00:05;94304.75;;;10.95;100.00
20119;BME280;10220;42.716;23.306;2022-11-24T04:02:31;94327.44;;;10.36;100.00
20119;BME280;10220;42.716;23.306;2022-11-24T04:04:56;94306.84;;;9.71;100.00
20119;BME280;10220;42.716;23.306;2022-11-24T04:07:23;94307.53;;;10.48;100.00
20119;BME280;10220;42.716;23.306;2022-11-24T04:09:48;94318.94;;;10.81;100.00
20119;BME280;10220;42.716;23.306;2022-11-24T04:12:14;94322.56;;;10.28;100.00
20119;BME280;10220;42.716;23.306;2022-11-24T04:14:58;94306.28;;;9.69;100.00
20119;BME280;10220;42.716;23.306;2022-11-24T04:17:23;94317.19;;;10.41;100.00
20119;BME280;10220;42.716;23.306;2022-11-24T04:19:49;94327.03;;;10.73;100.00
20119;BME280;10220;42.716;23.306;2022-11-24T04:22:17;94321.03;;;10.38;100.00
20119;BME280;10220;42.716;23.306;2022-11-24T04:24:43;94328.22;;;9.95;100.00
20119;BME280;10220;42.716;23.306;2022-11-24T04:27:08;94335.88;;;10.02;100.00
20119;BME280;10220;42.716;23.306;2022-11-24T04:29:33;94343.72;;;10.77;100.00
20119;BME280;10220;42.716;23.306;2022-11-24T04:31:59;94322.84;;;11.17;100.00
20119;BME280;10220;42.716;23.306;2022-11-24T04:34:24;94348.13;;;11.84;100.00
20119;BME280;10220;42.716;23.306;2022-11-24T04:36:50;94341.53;;;12.48;100.00
20119;BME280;10220;42.716;23.306;2022-11-24T04:39:15;94342.66;;;12.25;100.00
20119;BME280;10220;42.716;23.306;2022-11-24T04:41:41;94352.09;;;12.14;100.00
20119;BME280;10220;42.716;23.306;2022-11-24T04:44:06;94343.53;;;12.90;100.00
20119;BME280;10220;42.716;23.306;2022-11-24T04:46:32;94332.19;;;13.13;100.00
20119;BME280;10220;42.716;23.306;2022-11-24T04:48:57;94343.00;;;13.43;100.00
20119;BME280;10220;42.716;23.306;2022-11-24T04:51:23;94339.50;;;12.67;100.00
20119;BME280;10220;42.716;23.306;2022-11-24T04:53:48;94345.25;;;12.85;100.00
20119;BME280;10220;42.716;23.306;2022-11-24T04:56:13;94333.28;;;12.68;100.00
20119;BME280;10220;42.716;23.306;2022-11-24T04:58:39;94351.28;;;12.58;100.00
20119;BME280;10220;42.716;23.306;2022-11-24T05:01:07;94341.75;;;12.63;100.00
20119;BME280;10220;42.716;23.306;2022-11-24T05:03:34;94356.81;;;12.61;100.00
20119;BME280;10220;42.716;23.306;2022-11-24T05:06:00;94367.59;;;12.70;100.00
20119;BME280;10220;42.716;23.306;2022-11-24T05:08:25;94371.09;;;12.91;100.00
20119;BME280;10220;42.716;23.306;2022-11-24T05:10:51;94355.88;;;12.84;100.00
20119;BME280;10220;42.716;23.306;2022-11-24T05:13:16;94372.22;;;13.12;100.00
20119;BME280;10220;42.716;23.306;2022-11-24T05:15:41;94355.31;;;13.31;100.00
20119;BME280;10220;42.716;23.306;2022-11-24T05:18:10;94375.53;;;13.45;100.00
20119;BME280;10220;42.716;23.306;2022-11-24T05:20:36;94369.03;;;13.26;100.00
20119;BME280;10220;42.716;23.306;2022-11-24T05:23:06;94371.00;;;13.36;100.00
20119;BME280;10220;42.716;23.306;2022-11-24T05:25:34;94374.41;;;13.20;100.00
20119;BME280;10220;42.716;23.306;2022-11-24T05:28:01;94377.00;;;13.36;100.00
20119;BME280;10220;42.716;23.306;2022-11-24T05:30:27;94323.28;;;13.09;100.00
20119;BME280;10220;42.716;23.306;2022-11-24T05:32:52;94379.09;;;12.74;100.00
20119;BME280;10220;42.716;23.306;2022-11-24T05:35:18;94375.03;;;13.27;100.00
20119;BME280;10220;42.716;23.306;2022-11-24T05:37:43;94384.84;;;13.57;100.00
20119;BME280;10220;42.716;23.306;2022-11-24T05:40:09;94388.88;;;13.48;100.00
20119;BME280;10220;42.716;23.306;2022-11-24T05:42:35;94395.41;;;13.35;100.00
20119;BME280;10220;42.716;23.306;2022-11-24T05:45:09;94391.13;;;11.80;100.00
20119;BME280;10220;42.716;23.306;2022-11-24T05:47:36;94391.72;;;11.59;100.00
20119;BME280;10220;42.716;23.306;2022-11-24T05:50:02;94400.44;;;11.53;100.00
20119;BME280;10220;42.716;23.306;2022-11-24T05:52:27;94379.88;;;11.06;100.00
20119;BME280;10220;42.716;23.306;2022-11-24T05:54:52;94360.13;;;10.48;100.00
20119;BME280;10220;42.716;23.306;2022-11-24T05:57:18;94408.22;;;10.67;100.00
20119;BME280;10220;42.716;23.306;2022-11-24T05:59:44;94396.84;;;10.68;100.00
20119;BME280;10220;42.716;23.306;2022-11-24T06:02:09;94401.75;;;11.10;100.00
20119;BME280;10220;42.716;23.306;2022-11-24T06:04:35;94402.31;;;11.01;100.00
20119;BME280;10220;42.716;23.306;2022-11-24T06:07:01;94388.78;;;11.44;100.00
20119;BME280;10220;42.716;23.306;2022-11-24T06:09:27;94409.28;;;11.80;100.00
20119;BME280;10220;42.716;23.306;2022-11-24T06:11:53;94412.13;;;9.99;100.00
20119;BME280;10220;42.716;23.306;2022-11-24T06:14:18;94427.88;;;8.96;100.00
20119;BME280;10220;42.716;23.306;2022-11-24T06:16:43;94416.31;;;8.80;100.00
20119;BME280;10220;42.716;23.306;2022-11-24T06:19:10;94395.25;;;8.53;100.00
20119;BME280;10220;42.716;23.306;2022-11-24T06:21:35;94419.22;;;9.33;100.00
20119;BME280;10220;42.716;23.306;2022-11-24T06:24:01;94416.53;;;9.99;100.00
20119;BME280;10220;42.716;23.306;2022-11-24T06:26:26;94414.09;;;10.85;100.00
20119;BME280;10220;42.716;23.306;2022-11-24T06:28:52;94423.50;;;10.98;100.00
20119;BME280;10220;42.716;23.306;2022-11-24T06:31:17;94431.69;;;10.43;100.00
20119;BME280;10220;42.716;23.306;2022-11-24T06:33:43;94399.56;;;10.32;100.00
20119;BME280;10220;42.716;23.306;2022-11-24T06:36:11;94441.66;;;11.32;100.00
20119;BME280;10220;42.716;23.306;2022-11-24T06:38:37;94422.72;;;10.56;100.00
20119;BME280;10220;42.716;23.306;2022-11-24T06:41:05;94445.78;;;11.10;100.00
20119;BME280;10220;42.716;23.306;2022-11-24T06:43:32;94447.19;;;11.47;100.00
20119;BME280;10220;42.716;23.306;2022-11-24T06:45:58;94454.19;;;11.58;100.00
20119;BME280;10220;42.716;23.306;2022-11-24T06:48:24;94476.53;;;11.59;100.00
20119;BME280;10220;42.716;23.306;2022-11-24T06:50:50;94490.72;;;11.45;100.00
20119;BME280;10220;42.716;23.306;2022-11-24T06:53:16;94455.16;;;11.11;100.00
20119;BME280;10220;42.716;23.306;2022-11-24T06:55:45;94469.19;;;9.69;100.00
20119;BME280;10220;42.716;23.306;2022-11-24T06:58:11;94454.69;;;9.01;100.00
20119;BME280;10220;42.716;23.306;2022-11-24T07:00:37;94478.03;;;9.37;100.00
20119;BME280;10220;42.716;23.306;2022-11-24T07:03:02;94504.28;;;9.34;100.00
20119;BME280;10220;42.716;23.306;2022-11-24T07:05:28;94472.13;;;8.75;100.00
20119;BME280;10220;42.716;23.306;2022-11-24T07:07:53;94499.06;;;9.16;100.00
20119;BME280;10220;42.716;23.306;2022-11-24T07:10:18;94513.25;;;9.07;100.00
20119;BME280;10220;42.716;23.306;2022-11-24T07:12:44;94506.81;;;9.16;100.00
20119;BME280;10220;42.716;23.306;2022-11-24T07:15:10;94477.72;;;9.03;100.00
20119;BME280;10220;42.716;23.306;2022-11-24T07:17:36;94510.84;;;9.36;100.00
20119;BME280;10220;42.716;23.306;2022-11-24T07:20:06;94518.34;;;9.14;100.00
20119;BME280;10220;42.716;23.306;2022-11-24T07:22:33;94500.28;;;8.89;100.00
20119;BME280;10220;42.716;23.306;2022-11-24T07:24:58;94528.19;;;8.68;100.00
20119;BME280;10220;42.716;23.306;2022-11-24T07:27:25;94523.09;;;8.55;100.00
20119;BME280;10220;42.716;23.306;2022-11-24T07:29:51;94522.84;;;8.32;100.00
20119;BME280;10220;42.716;23.306;2022-11-24T07:32:16;94495.94;;;8.03;100.00
20119;BME280;10220;42.716;23.306;2022-11-24T07:34:42;94530.81;;;8.18;100.00
20119;BME280;10220;42.716;23.306;2022-11-24T07:37:07;94523.34;;;7.84;100.00
20119;BME280;10220;42.716;23.306;2022-11-24T07:39:32;94520.56;;;7.92;100.00
20119;BME280;10220;42.716;23.306;2022-11-24T07:41:58;94542.13;;;8.04;100.00
20119;BME280;10220;42.716;23.306;2022-11-24T07:44:24;94523.47;;;8.02;100.00
20119;BME280;10220;42.716;23.306;2022-11-24T07:46:50;94549.03;;;8.10;100.00
20119;BME280;10220;42.716;23.306;2022-11-24T07:49:16;94504.75;;;7.69;100.00
20119;BME280;10220;42.716;23.306;2022-11-24T07:51:42;94532.81;;;8.03;100.00
20119;BME280;10220;42.716;23.306;2022-11-24T07:54:07;94542.34;;;8.03;100.00
20119;BME280;10220;42.716;23.306;2022-11-24T07:56:33;94556.03;;;7.90;100.00
20119;BME280;10220;42.716;23.306;2022-11-24T07:58:58;94539.44;;;7.54;100.00
20119;BME280;10220;42.716;23.306;2022-11-24T08:01:23;94548.56;;;7.69;100.00
20119;BME280;10220;42.716;23.306;2022-11-24T08:03:49;94521.81;;;7.57;100.00
20119;BME280;10220;42.716;23.306;2022-11-24T08:06:15;94563.25;;;7.62;100.00
20119;BME280;10220;42.716;23.306;2022-11-24T08:08:41;94551.34;;;7.49;100.00
20119;BME280;10220;42.716;23.306;2022-11-24T08:11:08;94572.56;;;7.51;100.00
20119;BME280;10220;42.716;23.306;2022-11-24T08:13:35;94574.72;;;7.86;100.00
20119;BME280;10220;42.716;23.306;2022-11-24T08:16:08;94578.50;;;7.70;100.00
20119;BME280;10220;42.716;23.306;2022-11-24T08:18:35;94585.63;;;7.68;100.00
20119;BME280;10220;42.716;23.306;2022-11-24T08:21:01;94544.41;;;7.43;100.00
20119;BME280;10220;42.716;23.306;2022-11-24T08:23:27;94582.06;;;7.44;100.00
20119;BME280;10220;42.716;23.306;2022-11-24T08:25:53;94602.47;;;7.26;100.00
20119;BME280;10220;42.716;23.306;2022-11-24T08:28:20;94558.28;;;7.03;100.00
20119;BME280;10220;42.716;23.306;2022-11-24T08:30:46;94598.13;;;7.33;100.00
20119;BME280;10220;42.716;23.306;2022-11-24T08:33:11;94598.53;;;7.30;100.00
20119;BME280;10220;42.716;23.306;2022-11-24T08:35:37;94563.44;;;7.22;100.00
20119;BME280;10220;42.716;23.306;2022-11-24T08:38:03;94566.81;;;7.23;100.00
20119;BME280;10220;42.716;23.306;2022-11-24T08:40:29;94595.34;;;7.28;100.00
20119;BME280;10220;42.716;23.306;2022-11-24T08:42:59;94596.72;;;7.37;100.00
20119;BME280;10220;42.716;23.306;2022-11-24T08:45:25;94602.88;;;7.42;100.00
20119;BME280;10220;42.716;23.306;2022-11-24T08:47:55;94612.59;;;7.34;100.00
20119;BME280;10220;42.716;23.306;2022-11-24T08:50:22;94619.31;;;7.28;100.00
20119;BME280;10220;42.716;23.306;2022-11-24T08:52:49;94587.03;;;7.13;100.00
20119;BME280;10220;42.716;23.306;2022-11-24T08:55:15;94626.41;;;7.13;100.00
20119;BME280;10220;42.716;23.306;2022-11-24T08:57:40;94564.78;;;6.86;100.00
20119;BME280;10220;42.716;23.306;2022-11-24T09:00:06;94628.38;;;7.11;100.00
20119;BME280;10220;42.716;23.306;2022-11-24T09:02:32;94630.41;;;7.22;100.00
20119;BME280;10220;42.716;23.306;2022-11-24T09:04:57;94638.72;;;7.24;100.00
20119;BME280;10220;42.716;23.306;2022-11-24T09:07:23;94626.84;;;7.17;100.00
20119;BME280;10220;42.716;23.306;2022-11-24T09:09:48;94621.69;;;7.17;100.00
20119;BME280;10220;42.716;23.306;2022-11-24T09:12:14;94602.31;;;6.61;100.00
20119;BME280;10220;42.716;23.306;2022-11-24T09:14:39;94636.31;;;7.16;100.00
20119;BME280;10220;42.716;23.306;2022-11-24T09:17:05;94653.41;;;7.30;100.00
20119;BME280;10220;42.716;23.306;2022-11-24T09:19:30;94632.19;;;7.48;100.00
20119;BME280;10220;42.716;23.306;2022-11-24T09:21:56;94620.69;;;7.37;100.00
20119;BME280;10220;42.716;23.306;2022-11-24T09:24:21;94659.13;;;7.19;100.00
20119;BME280;10220;42.716;23.306;2022-11-24T09:26:47;94666.03;;;7.19;100.00
20119;BME280;10220;42.716;23.306;2022-11-24T09:29:12;94609.09;;;6.69;100.00
20119;BME280;10220;42.716;23.306;2022-11-24T09:31:38;94610.34;;;6.92;100.00
20119;BME280;10220;42.716;23.306;2022-11-24T09:34:06;94622.78;;;6.82;100.00
20119;BME280;10220;42.716;23.306;2022-11-24T09:36:32;94672.38;;;7.23;100.00
20119;BME280;10220;42.716;23.306;2022-11-24T09:38:58;94647.41;;;7.10;100.00
20119;BME280;10220;42.716;23.306;2022-11-24T09:49:21;94650.97;;;7.03;100.00
20119;BME280;10220;42.716;23.306;2022-11-24T09:51:51;94649.38;;;7.08;100.00
20119;BME280;10220;42.716;23.306;2022-11-24T09:54:22;94681.84;;;7.03;100.00
20119;BME280;10220;42.716;23.306;2022-11-24T09:56:51;94671.34;;;6.98;100.00
20119;BME280;10220;42.716;23.306;2022-11-24T09:59:20;94675.34;;;7.13;100.00
20119;BME280;10220;42.716;23.306;2022-11-24T10:01:48;94675.00;;;6.76;100.00
20119;BME280;10220;42.716;23.306;2022-11-24T10:04:40;94662.97;;;6.83;100.00
20119;BME280;10220;42.716;23.306;2022-11-24T10:07:52;94668.59;;;7.06;100.00
20119;BME280;10220;42.716;23.306;2022-11-24T10:13:22;94665.44;;;7.10;100.00
20119;BME280;10220;42.716;23.306;2022-11-24T10:16:02;94688.03;;;7.21;100.00
20119;BME280;10220;42.716;23.306;2022-11-24T10:19:01;94678.13;;;7.18;100.00
20119;BME280;10220;42.716;23.306;2022-11-24T10:27:31;94683.44;;;6.98;100.00
20119;BME280;10220;42.716;23.306;2022-11-24T10:29:59;94692.06;;;6.84;100.00
20119;BME280;10220;42.716;23.306;2022-11-24T10:32:31;94678.38;;;6.70;100.00
20119;BME280;10220;42.716;23.306;2022-11-24T10:35:14;94696.34;;;6.64;100.00
20119;BME280;10220;42.716;23.306;2022-11-24T10:37:47;94686.44;;;6.67;100.00
20119;BME280;10220;42.716;23.306;2022-11-24T10:41:02;94670.56;;;6.51;100.00
20119;BME280;10220;42.716;23.306;2022-11-24T10:43:01;94687.31;;;6.41;100.00
20119;BME280;10220;42.716;23.306;2022-11-24T10:45:29;94676.84;;;6.42;100.00
20119;BME280;10220;42.716;23.306;2022-11-24T10:47:56;94666.66;;;6.28;100.00
20119;BME280;10220;42.716;23.306;2022-11-24T10:58:37;94686.94;;;6.90;100.00
20119;BME280;10220;42.716;23.306;2022-11-24T11:06:19;94705.28;;;6.68;100.00
20119;BME280;10220;42.716;23.306;2022-11-24T11:08:45;94685.47;;;6.68;100.00
20119;BME280;10220;42.716;23.306;2022-11-24T11:11:21;94706.84;;;6.62;100.00
20119;BME280;10220;42.716;23.306;2022-11-24T11:13:58;94695.44;;;6.84;100.00
20119;BME280;10220;42.716;23.306;2022-11-24T11:18:56;94659.50;;;7.23;100.00
20119;BME280;10220;42.716;23.306;2022-11-24T11:21:35;94698.78;;;7.38;100.00
20119;BME280;10220;42.716;23.306;2022-11-24T11:24:13;94702.91;;;7.32;100.00
20119;BME280;10220;42.716;23.306;2022-11-24T11:26:40;94709.28;;;6.77;100.00
20119;BME280;10220;42.716;23.306;2022-11-24T11:31:35;94708.91;;;6.86;100.00
20119;BME280;10220;42.716;23.306;2022-11-24T11:34:14;94706.22;;;7.07;100.00
20119;BME280;10220;42.716;23.306;2022-11-24T11:36:43;94696.50;;;6.96;100.00
20119;BME280;10220;42.716;23.306;2022-11-24T11:39:29;94716.53;;;7.07;100.00
20119;BME280;10220;42.716;23.306;2022-11-24T11:42:06;94711.09;;;7.49;100.00
20119;BME280;10220;42.716;23.306;2022-11-24T11:44:40;94715.50;;;7.61;100.00
20119;BME280;10220;42.716;23.306;2022-11-24T11:47:25;94724.56;;;7.38;100.00
20119;BME280;10220;42.716;23.306;2022-11-24T11:49:52;94703.13;;;6.78;100.00
20119;BME280;10220;42.716;23.306;2022-11-24T11:57:45;94723.69;;;7.18;100.00
20119;BME280;10220;42.716;23.306;2022-11-24T12:00:17;94718.66;;;6.97;100.00
20119;BME280;10220;42.716;23.306;2022-11-24T12:02:47;94714.22;;;7.25;100.00
20119;BME280;10220;42.716;23.306;2022-11-24T12:15:56;94733.22;;;7.24;100.00
20119;BME280;10220;42.716;23.306;2022-11-24T12:18:35;94731.56;;;7.10;100.00
20119;BME280;10220;42.716;23.306;2022-11-24T12:24:08;94733.81;;;7.32;100.00
20119;BME280;10220;42.716;23.306;2022-11-24T12:26:57;94742.75;;;7.30;100.00
20119;BME280;10220;42.716;23.306;2022-11-24T12:43:09;94761.50;;;7.77;100.00
20119;BME280;10220;42.716;23.306;2022-11-24T12:51:13;94743.34;;;7.32;100.00
20119;BME280;10220;42.716;23.306;2022-11-24T12:53:41;94748.16;;;7.54;100.00
20119;BME280;10220;42.716;23.306;2022-11-24T12:56:10;94709.03;;;7.12;100.00
20119;BME280;10220;42.716;23.306;2022-11-24T13:09:09;94746.72;;;7.26;100.00
20119;BME280;10220;42.716;23.306;2022-11-24T13:11:40;94754.03;;;7.29;100.00
20119;BME280;10220;42.716;23.306;2022-11-24T13:14:24;94752.00;;;7.18;100.00
20119;BME280;10220;42.716;23.306;2022-11-24T13:16:58;94748.66;;;7.17;100.00
20119;BME280;10220;42.716;23.306;2022-11-24T13:19:27;94753.22;;;7.28;100.00
20119;BME280;10220;42.716;23.306;2022-11-24T13:22:02;94757.59;;;7.28;100.00
20119;BME280;10220;42.716;23.306;2022-11-24T13:24:37;94762.69;;;7.15;100.00
20119;BME280;10220;42.716;23.306;2022-11-24T13:29:40;94774.41;;;7.17;100.00
20119;BME280;10220;42.716;23.306;2022-11-24T13:37:06;94713.34;;;6.99;100.00
20119;BME280;10220;42.716;23.306;2022-11-24T13:39:51;94762.03;;;7.47;100.00
20119;BME280;10220;42.716;23.306;2022-11-24T13:42:18;94765.63;;;7.58;100.00
20119;BME280;10220;42.716;23.306;2022-11-24T13:44:45;94762.00;;;7.40;100.00
20119;BME280;10220;42.716;23.306;2022-11-24T13:47:30;94762.97;;;7.33;100.00
20119;BME280;10220;42.716;23.306;2022-11-24T13:49:56;94774.31;;;7.45;100.00
20119;BME280;10220;42.716;23.306;2022-11-24T13:52:41;94749.75;;;7.49;100.00
20119;BME280;10220;42.716;23.306;2022-11-24T13:57:41;94751.13;;;7.45;100.00
20119;BME280;10220;42.716;23.306;2022-11-24T14:03:25;94767.34;;;7.39;100.00
20119;BME280;10220;42.716;23.306;2022-11-24T14:05:53;94779.44;;;7.38;100.00
20119;BME280;10220;42.716;23.306;2022-11-24T14:08:30;94784.59;;;7.45;100.00
20119;BME280;10220;42.716;23.306;2022-11-24T14:10:58;94783.66;;;7.58;100.00
20119;BME280;10220;42.716;23.306;2022-11-24T14:13:29;94724.13;;;7.34;100.00
20119;BME280;10220;42.716;23.306;2022-11-24T14:18:37;94779.09;;;7.60;100.00
20119;BME280;10220;42.716;23.306;2022-11-24T14:21:29;94778.13;;;7.68;100.00
20119;BME280;10220;42.716;23.306;2022-11-24T14:24:07;94774.91;;;7.47;100.00
20119;BME280;10220;42.716;23.306;2022-11-24T14:26:39;94781.09;;;7.65;100.00
20119;BME280;10220;42.716;23.306;2022-11-24T14:29:14;94790.25;;;7.67;100.00
20119;BME280;10220;42.716;23.306;2022-11-24T14:31:41;94797.97;;;7.67;100.00
20119;BME280;10220;42.716;23.306;2022-11-24T14:36:36;94732.81;;;7.27;100.00
20119;BME280;10220;42.716;23.306;2022-11-24T14:39:03;94786.75;;;7.41;100.00
20119;BME280;10220;42.716;23.306;2022-11-24T14:41:28;94775.69;;;7.47;100.00